Terminal Aerodrome Forecast
Issued by NWS

Home | Current Version | Previous Version | Graphics & Text | Print | Product List | Glossary On
Versions: 1 2 3 4 5 6 7 8 9 10 11 12 13 14 15 16
838
FTUS43 KIWX 252139 AAA
TAFSBN
TAF AMD
KSBN 252139Z 2522/2618 18011G18KT P6SM SCT050 BKN250
     FM260000 20008KT P6SM VCTS BKN050CB
      TEMPO 2600/2604 4SM SHRA BR BKN035
     FM260600 17005KT P6SM SCT020 BKN100
      TEMPO 2610/2614 5SM BR BKN020
     FM261400 21013KT P6SM SCT040=

USA.gov is the U.S. government's official web portal to all federal, state and local government web resources and services.